Flight Track Log - Related Links

Times and Time Zones

All times are in EDT time to prevent confusion due to time zone crossing. See the CTL22 flight status page for this flight to view local times or setup timezone preferences in your user account.

Time Position Orientation Groundspeed Altitude Reporting Facility
EDT Latitude Longitude Course Direction KTS MPH feet Rate Location/Type
Thu 09:10:11 PM 41.5311 -81.7203 305° West 122 140 1,800  Level Cleveland Center
Thu 09:11:18 PM 41.5578 -81.7597 312° West 144 166 2,000 574 Climbing Cleveland Center
Thu 09:12:06 PM 41.5658 -81.7958 287° West 129 148 2,900 991 Climbing Cleveland Center
Thu 09:13:07 PM 41.5842 -81.8378 300° West 131 151 3,800 984 Climbing Cleveland Center
Thu 09:14:08 PM 41.6067 -81.8800 305° West 133 153 4,900 984 Climbing Cleveland Center
Thu 09:15:09 PM 41.6228 -81.9247 296° West 130 150 5,800 595 Climbing Cleveland Center
Thu 09:16:09 PM 41.6431 -81.9669 303° West 139 160 6,100 144 Climbing Cleveland Center
Thu 09:17:14 PM 41.6675 -82.0175 303° West 156 180 6,100  Level Cleveland Center
Thu 09:18:14 PM 41.6939 -82.0653 306° West 151 174 6,100  Level Cleveland Center
Thu 09:19:14 PM 41.7164 -82.1131 302° West 151 174 6,100 -65 Level Cleveland Center
Thu 09:19:47 PM 41.7264 -82.1411 296° West 155 178 6,000  Descending Cleveland Center
Thu 09:20:14 PM 41.7344 -82.1636 296° West 151 174 6,100  Climbing Cleveland Center
Thu 09:21:00 PM 41.7589 -82.2061 308° West 157 181 6,000 -56 Descending Cleveland Center
Thu 09:22:01 PM 41.7789 -82.2539 299° West 158 182 6,000  Level Cleveland Center
Thu 09:23:01 PM 41.8033 -82.3019 304° West 157 181 6,000  Level Cleveland Center
Thu 09:24:02 PM 41.8294 -82.3556 303° West 157 181 6,000 45 Level Cleveland Center
Thu 09:25:14 PM 41.8517 -82.4061 301° West 161 185 6,100 -50 Climbing Cleveland Center
Thu 09:26:03 PM 41.8739 -82.4544 302° West 157 181 5,900 -50 Descending Cleveland Center
Thu 09:27:14 PM 41.8981 -82.5081 301° West 161 185 6,000 49 Climbing Cleveland Center
Thu 09:28:05 PM 41.9222 -82.5561 304° West 157 181 6,000  Level Cleveland Center
Thu 09:29:14 PM 41.9419 -82.6097 296° West 161 185 6,000  Level Cleveland Center
Thu 09:30:12 PM 41.9661 -82.6636 301° West 159 183 6,000 -50 Level Cleveland Center
Thu 09:31:13 PM 41.9839 -82.7200 293° West 156 180 5,900  Descending Cleveland Center
Thu 09:32:13 PM 42.0036 -82.7739 296° West 154 177 6,000 52 Climbing Cleveland Center
Thu 09:33:08 PM 42.0194 -82.8219 294° West 155 178 6,000  Level Cleveland Center
Thu 09:34:15 PM 42.0433 -82.8758 301° West 155 178 6,000 50 Level Cleveland Center
Thu 09:35:09 PM 42.0611 -82.9242 296° West 157 181 6,100  Climbing Cleveland Center
Thu 09:36:04 PM 42.0789 -82.9694 298° West 154 177 6,000 -55 Descending Cleveland Center
Thu 09:36:58 PM 42.0925 -83.0203 290° West 159 183 6,000  Level Cleveland Center
Thu 09:37:59 PM 42.1142 -83.0744 298° West 162 186 6,000 -49 Level Cleveland Center
Thu 09:39:00 PM 42.1361 -83.1286 299° West 161 185 5,900  Descending Cleveland Center
Thu 09:40:06 PM 42.1578 -83.1853 297° West 158 182 6,000  Climbing Cleveland Center
Thu 09:41:07 PM 42.1772 -83.2394 296° West 162 186 5,900  Descending Cleveland Center
Thu 09:42:08 PM 42.1969 -83.2936 296° West 159 183 6,000 50 Climbing Cleveland Center
Thu 09:43:08 PM 42.2164 -83.3503 295° West 162 186 6,000 -52 Level Cleveland Center
Thu 09:44:03 PM 42.2339 -83.3989 296° West 165 190 5,900 -55 Descending Cleveland Center
Thu 09:44:58 PM 42.2472 -83.4472 290° West 161 185 5,900 52 Level Cleveland Center
Thu 09:45:58 PM 42.2669 -83.5014 296° West 160 184 6,000 55 Climbing Cleveland Center
Thu 09:46:47 PM 42.2822 -83.5469 294° West 160 184 6,000 -52 Level Cleveland Center
Thu 09:47:54 PM 42.3017 -83.6069 294° West 157 181 5,900 -45 Descending Cleveland Center
Thu 09:49:00 PM 42.3250 -83.6697 297° West 157 181 5,900 45 Level Cleveland Center
Thu 09:50:07 PM 42.3442 -83.7269 294° West 157 181 6,000 11 Climbing Cleveland Center
Thu 09:52:00 PM 42.3763 -83.8240 294° West  Level FlightAware Approximate
Thu 09:57:55 PM 42.4794 -84.1472 292° West 157 181 6,000  Level Chicago Center
Thu 09:58:57 PM 42.4956 -84.2011 292° West 156 180 6,000  Level Chicago Center
Thu 09:59:00 PM 42.4940 -84.1859 292° West  Level FlightAware Approximate
Thu 09:59:59 PM 42.5117 -84.2561 292° West 157 181 6,000  Level Chicago Center
Thu 10:00:00 PM 42.5097 -84.2383 292° West  Level FlightAware Approximate
Thu 10:01:00 PM 42.5253 -84.2908 292° West  Level FlightAware Approximate
Thu 10:01:00 PM 42.5314 -84.3089 297° West 158 182 5,900  Level Chicago Center
Thu 10:02:00 PM 42.5409 -84.3433 292° West  Level FlightAware Approximate
Thu 10:02:02 PM 42.5458 -84.3633 290° West 155 178 6,000  Level Chicago Center
Thu 10:03:00 PM 42.5564 -84.3958 292° West  Level FlightAware Approximate
Thu 10:03:04 PM 42.5611 -84.4189 290° West 157 181 6,100  Level Chicago Center
Thu 10:04:06 PM 42.5794 -84.4714 295° West 156 180 6,000 -49 Descending Chicago Center
Thu 10:05:07 PM 42.6122 -84.5292 308° West 166 191 6,000 -49 Level Chicago Center
Thu 10:06:09 PM 42.6261 -84.5822 290° West 154 177 5,900  Descending Chicago Center
Thu 10:07:10 PM 42.6456 -84.6353 296° West 156 180 6,000 49 Climbing Chicago Center
Thu 10:08:12 PM 42.6600 -84.6883 290° West 152 175 6,000  Level Chicago Center
Thu 10:09:14 PM 42.6742 -84.7447 289° West 156 180 6,000  Level Chicago Center
Thu 10:10:15 PM 42.6878 -84.7981 289° West 153 176 6,000  Level Chicago Center
Thu 10:11:17 PM 42.7014 -84.8550 288° West 157 181 6,000 -49 Level Chicago Center
Thu 10:12:18 PM 42.7158 -84.9100 290° West 155 178 5,900 -293 Descending Chicago Center
Thu 10:13:20 PM 42.7342 -84.9786 290° West 160 184 5,400 -581 Descending Chicago Center
Thu 10:14:22 PM 42.7514 -85.0400 291° West 171 197 4,700 -634 Descending Chicago Center
Thu 10:15:23 PM 42.7683 -85.1025 290° West 175 201 4,100 -488 Descending Chicago Center
Thu 10:16:25 PM 42.7839 -85.1642 289° West 174 200 3,700 -439 Descending Chicago Center
Thu 10:17:26 PM 42.8003 -85.2239 291° West 170 196 3,200 -390 Descending Chicago Center
Thu 10:18:28 PM 42.8164 -85.2831 290° West 169 194 2,900 -195 Descending Chicago Center
Thu 10:19:29 PM 42.8336 -85.3375 293° West 163 188 2,800 -341 Descending Chicago Center
Thu 10:20:31 PM 42.8525 -85.3939 295° West 162 186 2,200 -634 Descending Chicago Center
Thu 10:21:32 PM 42.8747 -85.4653 293° West 167 192 1,500 -634 Descending Chicago Center
Thu 10:22:34 PM 42.8797 -85.5050 280° West 154 177 900 -581 Descending Chicago Center
Thu 10:24:00 PM 42.8667 -85.5167 270° West  Level FlightAware Approximate

Login

Don't have an account? Register now (free) for customized features, flight alerts, and more!